createdAt,value
2022-10-22T00:01:40.676Z,12.05
2022-10-22T00:04:11.551Z,12.02
2022-10-22T00:06:42.855Z,12.04
2022-10-22T00:09:12.953Z,12.07
2022-10-22T00:11:43.536Z,12.09
2022-10-22T00:14:15.710Z,12.10
2022-10-22T00:16:45.758Z,12.12
2022-10-22T00:19:15.845Z,12.11
2022-10-22T00:21:45.866Z,12.10
2022-10-22T00:24:16.796Z,12.11
2022-10-22T00:26:46.931Z,12.11
2022-10-22T00:29:18.873Z,12.11
2022-10-22T00:31:50.772Z,12.11
2022-10-22T00:34:23.090Z,12.11
2022-10-22T00:36:53.164Z,12.11
2022-10-22T00:39:24.523Z,12.09
2022-10-22T00:41:55.557Z,12.09
2022-10-22T00:44:43.958Z,12.12
2022-10-22T00:47:17.893Z,12.12
2022-10-22T00:49:48.138Z,12.14
2022-10-22T00:52:18.155Z,12.14
2022-10-22T00:54:49.072Z,12.15
2022-10-22T00:57:20.501Z,12.12
2022-10-22T00:59:50.803Z,12.13
2022-10-22T01:02:20.879Z,12.14
2022-10-22T01:04:51.749Z,12.14
2022-10-22T01:07:22.921Z,12.15
2022-10-22T01:09:59.610Z,12.14
2022-10-22T01:12:36.771Z,12.16
2022-10-22T01:15:13.371Z,12.15
2022-10-22T01:17:49.141Z,12.13
2022-10-22T01:20:35.637Z,12.12
2022-10-22T01:23:14.867Z,12.13
2022-10-22T01:25:49.197Z,12.13
2022-10-22T01:28:25.034Z,12.12
2022-10-22T01:31:02.443Z,12.13
2022-10-22T01:33:33.918Z,12.15
2022-10-22T01:36:04.389Z,12.16
2022-10-22T01:38:34.998Z,12.16
2022-10-22T01:41:07.931Z,12.13
2022-10-22T01:43:38.054Z,12.11
2022-10-22T01:46:09.605Z,12.10
2022-10-22T01:48:45.371Z,12.08
2022-10-22T01:51:31.569Z,12.07
2022-10-22T01:54:03.652Z,12.07
2022-10-22T01:56:41.981Z,12.09
2022-10-22T01:59:18.563Z,12.12
2022-10-22T02:01:54.002Z,12.13
2022-10-22T02:04:27.009Z,12.14
2022-10-22T02:07:00.089Z,12.16
2022-10-22T02:09:31.268Z,12.18
2022-10-22T02:14:40.916Z,12.16
2022-10-22T02:17:14.796Z,12.18
2022-10-22T02:19:48.453Z,12.18
2022-10-22T02:22:20.402Z,12.20
2022-10-22T02:24:50.574Z,12.20
2022-10-22T02:27:26.059Z,12.22
2022-10-22T02:30:02.674Z,12.23
2022-10-22T02:32:38.300Z,12.24
2022-10-22T02:35:12.034Z,12.24
2022-10-22T02:37:42.847Z,12.26
2022-10-22T02:40:14.025Z,12.28
2022-10-22T02:42:46.020Z,12.28
2022-10-22T02:45:16.403Z,12.27
2022-10-22T02:47:47.637Z,12.27
2022-10-22T02:50:17.853Z,12.26
2022-10-22T02:52:53.380Z,12.26
2022-10-22T02:55:23.428Z,12.26
2022-10-22T02:57:53.488Z,12.26
2022-10-22T03:00:23.609Z,12.28
2022-10-22T03:02:56.127Z,12.31
2022-10-22T03:05:26.209Z,12.35
2022-10-22T03:07:56.305Z,12.36
2022-10-22T03:10:26.367Z,12.36
2022-10-22T03:12:58.141Z,12.36
2022-10-22T03:18:03.526Z,12.39
2022-10-22T03:20:33.504Z,12.39
2022-10-22T03:23:05.190Z,12.39
2022-10-22T03:25:35.701Z,12.40
2022-10-22T03:28:08.364Z,12.39
2022-10-22T03:30:38.633Z,12.41
2022-10-22T03:33:13.605Z,12.41
2022-10-22T03:35:45.796Z,12.41
2022-10-22T03:38:16.829Z,12.39
2022-10-22T03:40:47.370Z,12.40
2022-10-22T03:43:19.687Z,12.42
2022-10-22T03:45:56.323Z,12.42
2022-10-22T03:48:26.469Z,12.43
2022-10-22T03:50:56.476Z,12.44
2022-10-22T03:53:28.193Z,12.46
2022-10-22T03:55:58.249Z,12.44
2022-10-22T03:58:28.337Z,12.43
2022-10-22T04:00:58.380Z,12.45
2022-10-22T04:03:29.255Z,12.43
2022-10-22T04:06:03.458Z,12.43
2022-10-22T04:08:34.071Z,12.44
2022-10-22T04:11:04.452Z,12.47
2022-10-22T04:13:35.457Z,12.49
2022-10-22T04:16:12.455Z,12.50
2022-10-22T04:18:42.634Z,12.51
2022-10-22T04:21:13.928Z,12.52
2022-10-22T04:23:47.968Z,12.55
2022-10-22T04:26:18.822Z,12.55
2022-10-22T04:28:50.807Z,12.55
2022-10-22T04:31:21.902Z,12.55
2022-10-22T04:33:56.041Z,12.56
2022-10-22T04:36:26.569Z,12.56
2022-10-22T04:38:57.706Z,12.58
2022-10-22T04:41:28.945Z,12.56
2022-10-22T04:44:00.442Z,12.55
2022-10-22T04:46:32.454Z,12.54
2022-10-22T04:49:03.953Z,12.53
2022-10-22T04:51:34.125Z,12.52
2022-10-22T04:54:05.934Z,12.50
2022-10-22T04:56:36.028Z,12.50
2022-10-22T04:59:07.118Z,12.49
2022-10-22T05:01:41.701Z,12.51
2022-10-22T05:04:15.665Z,12.52
2022-10-22T05:06:45.769Z,12.51
2022-10-22T05:09:16.522Z,12.52
2022-10-22T05:11:49.215Z,12.54
2022-10-22T05:14:21.037Z,12.57
2022-10-22T05:16:51.522Z,12.58
2022-10-22T05:19:24.164Z,12.60
2022-10-22T05:21:55.151Z,12.60
2022-10-22T05:24:26.298Z,12.62
2022-10-22T05:26:56.961Z,12.63
2022-10-22T05:29:27.336Z,12.65
2022-10-22T05:31:57.426Z,12.65
2022-10-22T05:34:27.597Z,12.66
2022-10-22T05:36:57.647Z,12.66
2022-10-22T05:39:27.901Z,12.68
2022-10-22T05:41:58.611Z,12.69
2022-10-22T05:44:28.670Z,12.70
2022-10-22T05:46:58.761Z,12.71
2022-10-22T05:49:28.789Z,12.73
2022-10-22T05:51:58.887Z,12.75
2022-10-22T05:54:29.892Z,12.78
2022-10-22T05:56:59.955Z,12.82
2022-10-22T05:59:30.050Z,12.85
2022-10-22T06:02:00.280Z,12.87
2022-10-22T06:04:30.476Z,12.88
2022-10-22T06:07:00.579Z,12.89
2022-10-22T06:09:32.372Z,12.91
2022-10-22T06:12:02.455Z,12.90
2022-10-22T06:14:33.916Z,12.93
2022-10-22T06:17:03.963Z,12.95
2022-10-22T06:19:34.079Z,12.94
2022-10-22T06:22:04.488Z,12.94
2022-10-22T06:24:35.507Z,12.94
2022-10-22T06:27:05.546Z,12.95
2022-10-22T06:29:35.637Z,12.97
2022-10-22T06:32:05.922Z,12.97
2022-10-22T06:34:36.084Z,12.98
2022-10-22T06:37:06.131Z,13.00
2022-10-22T06:39:36.205Z,13.00
2022-10-22T06:42:06.409Z,13.02
2022-10-22T06:44:36.565Z,13.05
2022-10-22T06:47:06.828Z,13.08
2022-10-22T06:49:36.870Z,13.11
2022-10-22T06:52:06.940Z,13.16
2022-10-22T06:54:37.183Z,13.20
2022-10-22T06:57:07.252Z,13.24
2022-10-22T06:59:37.682Z,13.29
2022-10-22T07:02:07.780Z,13.31
2022-10-22T07:04:37.817Z,13.35
2022-10-22T07:07:08.360Z,13.40
2022-10-22T07:09:39.571Z,13.46
2022-10-22T07:12:09.717Z,13.50
2022-10-22T07:14:39.798Z,13.54
2022-10-22T07:17:10.103Z,13.60
2022-10-22T07:19:40.141Z,13.65
2022-10-22T07:22:10.199Z,13.70
2022-10-22T07:24:40.371Z,13.74
2022-10-22T07:27:11.026Z,13.79
2022-10-22T07:29:41.944Z,13.81
2022-10-22T07:32:11.940Z,13.83
2022-10-22T07:34:43.913Z,13.85
2022-10-22T07:37:14.086Z,13.84
2022-10-22T07:39:46.747Z,13.82
2022-10-22T07:42:16.940Z,13.81
2022-10-22T07:44:47.039Z,13.78
2022-10-22T07:47:17.081Z,13.79
2022-10-22T07:49:47.144Z,13.80
2022-10-22T07:52:17.202Z,13.83
2022-10-22T07:54:47.257Z,13.86
2022-10-22T07:57:17.326Z,13.87
2022-10-22T07:59:47.480Z,13.89
2022-10-22T08:02:17.732Z,13.92
2022-10-22T08:04:47.872Z,13.93
2022-10-22T08:07:17.950Z,13.94
2022-10-22T08:09:48.056Z,13.91
2022-10-22T08:12:18.111Z,13.91
2022-10-22T08:14:48.210Z,13.93
2022-10-22T08:17:18.206Z,13.97
2022-10-22T08:19:48.305Z,13.97
2022-10-22T08:22:18.313Z,13.96
2022-10-22T08:24:49.072Z,13.94
2022-10-22T08:27:19.042Z,13.92
2022-10-22T08:29:49.063Z,13.88
2022-10-22T08:32:19.446Z,13.84
2022-10-22T08:34:49.599Z,13.79
2022-10-22T08:37:19.620Z,13.73
2022-10-22T08:39:49.725Z,13.73
2022-10-22T08:42:30.899Z,13.74
2022-10-22T08:45:05.164Z,13.79
2022-10-22T08:47:45.338Z,13.81
2022-10-22T08:50:24.652Z,13.86
2022-10-22T08:52:58.204Z,13.86
2022-10-22T08:55:30.270Z,13.85
2022-10-22T08:58:05.804Z,13.88
2022-10-22T09:00:40.306Z,13.92
2022-10-22T09:03:20.309Z,13.94
2022-10-22T09:05:56.303Z,13.94
2022-10-22T09:08:26.514Z,13.95
2022-10-22T09:11:00.526Z,13.97
2022-10-22T09:13:30.989Z,14.00
2022-10-22T09:16:02.724Z,14.02
2022-10-22T09:18:36.469Z,14.02
2022-10-22T09:21:14.603Z,14.03
2022-10-22T09:23:51.811Z,14.03
2022-10-22T09:26:21.893Z,13.98
2022-10-22T09:28:52.508Z,13.95
2022-10-22T09:31:23.383Z,13.91
2022-10-22T09:33:53.530Z,13.90
2022-10-22T09:36:24.366Z,13.93
2022-10-22T09:38:54.714Z,13.94
2022-10-22T09:41:27.927Z,13.89
2022-10-22T09:43:58.391Z,13.87
2022-10-22T09:46:30.851Z,13.86
2022-10-22T09:49:03.085Z,13.85
2022-10-22T09:51:43.155Z,13.83
2022-10-22T09:54:17.719Z,13.79
2022-10-22T09:56:52.445Z,13.76
2022-10-22T09:59:29.982Z,13.76
2022-10-22T10:02:13.672Z,13.74
2022-10-22T10:04:54.405Z,13.67
2022-10-22T10:07:25.961Z,13.67
2022-10-22T10:09:56.170Z,13.66
2022-10-22T10:12:37.324Z,13.65
2022-10-22T10:15:18.235Z,13.64
2022-10-22T10:17:51.889Z,13.64
2022-10-22T10:20:29.553Z,13.64
2022-10-22T10:23:04.548Z,13.66
2022-10-22T10:25:39.669Z,13.70
2022-10-22T10:28:18.492Z,13.75
2022-10-22T10:30:53.007Z,13.78
2022-10-22T10:33:29.192Z,13.79
2022-10-22T10:36:03.164Z,13.81
2022-10-22T10:38:49.794Z,13.84
2022-10-22T10:41:22.850Z,13.85
2022-10-22T10:44:04.428Z,13.87
2022-10-22T10:46:39.563Z,13.90
2022-10-22T10:49:11.528Z,13.90
2022-10-22T10:51:46.385Z,13.86
2022-10-22T10:54:23.000Z,13.82
2022-10-22T10:56:55.499Z,13.81
2022-10-22T10:59:32.717Z,13.81
2022-10-22T11:02:19.004Z,13.82
2022-10-22T11:05:03.528Z,13.81
2022-10-22T11:07:37.797Z,13.83
2022-10-22T11:10:14.658Z,13.84
2022-10-22T11:12:48.915Z,13.83
2022-10-22T11:15:25.122Z,13.83
2022-10-22T11:17:57.715Z,13.82
2022-10-22T11:20:32.502Z,13.82
2022-10-22T11:23:21.746Z,13.78
2022-10-22T11:25:53.323Z,13.79
2022-10-22T11:28:26.934Z,13.78
2022-10-22T11:31:00.198Z,13.80
2022-10-22T11:33:41.391Z,13.82
2022-10-22T11:36:12.118Z,13.84
2022-10-22T11:38:42.474Z,13.86
2022-10-22T11:41:14.645Z,13.90
2022-10-22T11:44:09.181Z,13.97
2022-10-22T11:46:56.043Z,14.03
2022-10-22T11:49:27.510Z,14.10
2022-10-22T11:55:23.317Z,14.26
2022-10-22T11:57:57.882Z,14.27
2022-10-22T12:00:39.403Z,14.31
2022-10-22T12:03:25.100Z,14.36
2022-10-22T12:06:21.046Z,14.38
2022-10-22T12:08:55.270Z,14.34
2022-10-22T12:11:27.753Z,14.35
2022-10-22T12:14:14.633Z,14.33
2022-10-22T12:17:02.234Z,14.36
2022-10-22T12:19:34.041Z,14.40
2022-10-22T12:22:13.794Z,14.42
2022-10-22T12:24:45.667Z,14.43
2022-10-22T12:27:22.720Z,14.43
2022-10-22T12:29:56.666Z,14.43
2022-10-22T12:32:34.419Z,14.45
2022-10-22T12:35:07.731Z,14.47
2022-10-22T12:37:38.377Z,14.47
2022-10-22T12:40:19.003Z,14.46
2022-10-22T12:42:55.826Z,14.47
2022-10-22T12:45:27.999Z,14.44
2022-10-22T12:47:59.861Z,14.41
2022-10-22T12:50:34.064Z,14.39
2022-10-22T12:53:06.043Z,14.37
2022-10-22T12:55:36.103Z,14.35
2022-10-22T12:58:08.025Z,14.33
2022-10-22T13:00:38.116Z,14.33
2022-10-22T13:03:08.361Z,14.30
2022-10-22T13:05:40.004Z,14.24
2022-10-22T13:08:12.276Z,14.19
2022-10-22T13:10:42.978Z,14.17
2022-10-22T13:13:26.586Z,14.12
2022-10-22T13:15:57.007Z,14.11
2022-10-22T13:18:34.052Z,14.10
2022-10-22T13:21:04.208Z,14.11
2022-10-22T13:23:35.184Z,14.12
2022-10-22T13:26:13.050Z,14.11
2022-10-22T13:28:43.763Z,14.10
2022-10-22T13:31:18.056Z,14.09
2022-10-22T13:33:52.604Z,14.08
2022-10-22T13:36:22.814Z,14.11
2022-10-22T13:38:53.222Z,14.12
2022-10-22T13:41:24.948Z,14.14
2022-10-22T13:43:56.531Z,14.20
2022-10-22T13:46:27.212Z,14.24
2022-10-22T13:48:58.915Z,14.27
2022-10-22T13:51:33.200Z,14.31
2022-10-22T13:54:11.536Z,14.36
2022-10-22T13:56:41.648Z,14.40
2022-10-22T13:59:11.821Z,14.45
2022-10-22T14:01:42.155Z,14.46
2022-10-22T14:04:14.793Z,14.47
2022-10-22T14:06:45.228Z,14.48
2022-10-22T14:09:16.583Z,14.51
2022-10-22T14:11:46.754Z,14.54
2022-10-22T14:14:20.154Z,14.56
2022-10-22T14:16:50.296Z,14.57
2022-10-22T14:19:20.404Z,14.57
2022-10-22T14:21:50.605Z,14.55
2022-10-22T14:24:21.678Z,14.54
2022-10-22T14:26:58.700Z,14.57
2022-10-22T14:29:28.904Z,14.60
2022-10-22T14:31:59.016Z,14.64
2022-10-22T14:34:29.891Z,14.66
2022-10-22T14:37:00.265Z,14.67
2022-10-22T14:39:31.146Z,14.69
2022-10-22T14:42:01.238Z,14.71
2022-10-22T14:44:31.417Z,14.75
2022-10-22T14:47:01.675Z,14.80
2022-10-22T14:49:31.820Z,14.85
2022-10-22T14:52:01.873Z,14.87
2022-10-22T14:54:33.299Z,14.91
2022-10-22T14:57:03.901Z,14.93
2022-10-22T14:59:33.966Z,14.93
2022-10-22T15:02:04.107Z,14.92
2022-10-22T15:04:34.326Z,14.90
2022-10-22T15:07:04.473Z,14.89
2022-10-22T15:09:35.107Z,14.88
2022-10-22T15:12:06.201Z,14.86
2022-10-22T15:14:36.408Z,14.84
2022-10-22T15:17:06.606Z,14.81
2022-10-22T15:19:36.704Z,14.77
2022-10-22T15:22:06.984Z,14.75
2022-10-22T15:24:37.047Z,14.70
2022-10-22T15:27:07.150Z,14.64
2022-10-22T15:29:37.354Z,14.61
2022-10-22T15:32:10.514Z,14.58
2022-10-22T15:34:41.563Z,14.56
2022-10-22T15:37:13.497Z,14.54
2022-10-22T15:39:44.407Z,14.53
2022-10-22T15:42:14.879Z,14.52
2022-10-22T15:44:45.180Z,14.50
2022-10-22T15:47:15.694Z,14.49
2022-10-22T15:49:46.010Z,14.47
2022-10-22T15:52:16.236Z,14.44
2022-10-22T15:54:46.429Z,14.40
2022-10-22T15:57:16.652Z,14.35
2022-10-22T15:59:50.200Z,14.31
2022-10-22T16:02:20.387Z,14.24
2022-10-22T16:04:50.642Z,14.18
2022-10-22T16:07:23.888Z,14.13
2022-10-22T16:09:57.804Z,14.09
2022-10-22T16:12:27.935Z,14.05
2022-10-22T16:14:58.141Z,14.02
2022-10-22T16:17:28.363Z,14.00
2022-10-22T16:19:58.631Z,13.99
2022-10-22T16:22:28.810Z,13.99
2022-10-22T16:24:58.980Z,13.98
2022-10-22T16:27:29.219Z,13.99
2022-10-22T16:29:59.431Z,13.97
2022-10-22T16:32:29.598Z,13.94
2022-10-22T16:34:59.839Z,13.89
2022-10-22T16:37:31.377Z,13.85
2022-10-22T16:40:04.458Z,13.84
2022-10-22T16:42:38.258Z,13.84
2022-10-22T16:45:11.306Z,13.86
2022-10-22T16:47:43.789Z,13.87
2022-10-22T16:50:22.951Z,13.88
2022-10-22T16:52:53.080Z,13.89
2022-10-22T16:55:23.334Z,13.89
2022-10-22T16:57:53.662Z,13.90
2022-10-22T17:00:26.434Z,13.89
2022-10-22T17:02:57.015Z,13.89
2022-10-22T17:05:27.306Z,13.87
2022-10-22T17:07:57.425Z,13.87
2022-10-22T17:10:31.075Z,13.86
2022-10-22T17:13:01.221Z,13.85
2022-10-22T17:15:31.487Z,13.84
2022-10-22T17:18:01.975Z,13.84
2022-10-22T17:20:35.525Z,13.85
2022-10-22T17:23:07.007Z,13.88
2022-10-22T17:25:42.226Z,13.92
2022-10-22T17:28:12.751Z,13.93
2022-10-22T17:30:45.200Z,13.95
2022-10-22T17:33:15.345Z,13.95
2022-10-22T17:35:45.413Z,13.96
2022-10-22T17:38:15.483Z,13.97
2022-10-22T17:40:47.138Z,14.00
2022-10-22T17:43:17.229Z,14.01
2022-10-22T17:45:47.639Z,14.02
2022-10-22T17:48:17.660Z,14.04
2022-10-22T17:50:50.410Z,14.04
2022-10-22T17:53:22.133Z,14.07
2022-10-22T17:55:59.275Z,14.09
2022-10-22T17:58:30.296Z,14.11
2022-10-22T18:01:01.246Z,14.12
2022-10-22T18:03:31.356Z,14.15
2022-10-22T18:06:10.157Z,14.15
2022-10-22T18:08:40.533Z,14.16
2022-10-22T18:11:12.303Z,14.16
2022-10-22T18:13:42.361Z,14.16
2022-10-22T18:16:13.412Z,14.15
2022-10-22T18:18:46.205Z,14.15
2022-10-22T18:21:16.662Z,14.15
2022-10-22T18:23:47.188Z,14.17
2022-10-22T18:26:21.418Z,14.17
2022-10-22T18:28:54.799Z,14.16
2022-10-22T18:31:27.000Z,14.15
2022-10-22T18:33:57.423Z,14.15
2022-10-22T18:36:28.635Z,14.13
2022-10-22T18:38:59.643Z,14.11
2022-10-22T18:41:31.699Z,14.09
2022-10-22T18:44:02.691Z,14.09
2022-10-22T18:46:34.951Z,14.08
2022-10-22T18:49:06.992Z,14.08
2022-10-22T18:51:38.183Z,14.08
2022-10-22T18:54:22.235Z,14.07
2022-10-22T18:56:53.779Z,14.07
2022-10-22T18:59:24.768Z,14.06
2022-10-22T19:01:55.515Z,14.04
2022-10-22T19:04:27.141Z,14.04
2022-10-22T19:06:57.624Z,14.04
2022-10-22T19:09:27.736Z,14.05
2022-10-22T19:11:58.862Z,14.07
2022-10-22T19:14:28.891Z,14.07
2022-10-22T19:16:58.936Z,14.08
2022-10-22T19:19:29.024Z,14.09
2022-10-22T19:22:00.412Z,14.10
2022-10-22T19:24:30.485Z,14.12
2022-10-22T19:27:00.879Z,14.14
2022-10-22T19:29:30.938Z,14.16
2022-10-22T19:32:01.159Z,14.18
2022-10-22T19:34:32.397Z,14.20
2022-10-22T19:37:02.441Z,14.20
2022-10-22T19:39:32.443Z,14.19
2022-10-22T19:42:04.303Z,14.19
2022-10-22T19:44:34.755Z,14.18
2022-10-22T19:47:04.898Z,14.17
2022-10-22T19:49:35.982Z,14.16
2022-10-22T19:52:06.882Z,14.17
2022-10-22T19:54:40.849Z,14.18
2022-10-22T19:57:12.253Z,14.19
2022-10-22T19:59:42.368Z,14.21
2022-10-22T20:02:14.287Z,14.22
2022-10-22T20:04:49.140Z,14.23
2022-10-22T20:07:20.571Z,14.25
2022-10-22T20:09:50.781Z,14.27
2022-10-22T20:12:21.704Z,14.29
2022-10-22T20:14:52.508Z,14.29
2022-10-22T20:17:22.583Z,14.30
2022-10-22T20:19:52.724Z,14.31
2022-10-22T20:22:22.750Z,14.33
2022-10-22T20:24:52.847Z,14.32
2022-10-22T20:27:23.041Z,14.32
2022-10-22T20:29:53.157Z,14.32
2022-10-22T20:32:24.986Z,14.32
2022-10-22T20:34:56.452Z,14.33
2022-10-22T20:37:26.907Z,14.35
2022-10-22T20:39:57.136Z,14.36
2022-10-22T20:42:28.068Z,14.38
2022-10-22T20:44:58.115Z,14.39
2022-10-22T20:47:39.149Z,14.41
2022-10-22T20:50:21.311Z,14.40
2022-10-22T20:52:51.459Z,14.41
2022-10-22T20:55:21.603Z,14.38
2022-10-22T20:57:51.751Z,14.37
2022-10-22T21:00:21.945Z,14.35
2022-10-22T21:02:52.004Z,14.31
2022-10-22T21:05:22.031Z,14.31
2022-10-22T21:07:52.058Z,14.30
2022-10-22T21:10:31.476Z,14.31
2022-10-22T21:13:02.629Z,14.33
2022-10-22T21:15:33.501Z,14.33
2022-10-22T21:18:03.556Z,14.31
2022-10-22T21:20:33.635Z,14.28
2022-10-22T21:23:05.297Z,14.26
2022-10-22T21:25:38.347Z,14.24
2022-10-22T21:28:10.647Z,14.22
2022-10-22T21:30:46.614Z,14.21
2022-10-22T21:33:17.617Z,14.18
2022-10-22T21:35:52.411Z,14.14
2022-10-22T21:38:23.068Z,14.11
2022-10-22T21:40:53.098Z,14.10
2022-10-22T21:43:23.221Z,14.11
2022-10-22T21:45:53.285Z,14.12
2022-10-22T21:48:23.377Z,14.13
2022-10-22T21:50:54.223Z,14.12
2022-10-22T21:53:25.890Z,14.10
2022-10-22T21:55:55.882Z,14.10
2022-10-22T21:58:26.749Z,14.06
2022-10-22T22:00:58.469Z,14.02
2022-10-22T22:03:30.348Z,13.94
2022-10-22T22:06:01.234Z,13.90
2022-10-22T22:08:31.483Z,13.90
2022-10-22T22:11:05.751Z,13.90
2022-10-22T22:13:37.812Z,13.90
2022-10-22T22:16:09.768Z,13.91
2022-10-22T22:18:40.493Z,13.93
2022-10-22T22:21:11.595Z,13.94
2022-10-22T22:23:43.216Z,13.94
2022-10-22T22:26:14.216Z,13.93
2022-10-22T22:28:44.336Z,13.92
2022-10-22T22:31:15.546Z,13.89
2022-10-22T22:33:47.250Z,13.88
2022-10-22T22:36:17.307Z,13.84
2022-10-22T22:38:47.371Z,13.80
2022-10-22T22:41:17.364Z,13.79
2022-10-22T22:43:49.067Z,13.77
2022-10-22T22:46:19.093Z,13.75
2022-10-22T22:48:50.228Z,13.71
2022-10-22T22:51:20.261Z,13.66
2022-10-22T22:53:51.092Z,13.64
2022-10-22T22:56:22.264Z,13.61
2022-10-22T22:58:52.865Z,13.58
2022-10-22T23:01:24.061Z,13.58
2022-10-22T23:03:56.977Z,13.54
2022-10-22T23:06:28.622Z,13.52
2022-10-22T23:08:59.636Z,13.51
2022-10-22T23:11:30.204Z,13.50
2022-10-22T23:14:01.018Z,13.50
2022-10-22T23:16:34.771Z,13.47
2022-10-22T23:19:05.738Z,13.45
2022-10-22T23:21:36.603Z,13.44
2022-10-22T23:24:08.289Z,13.44
2022-10-22T23:26:39.252Z,13.42
2022-10-22T23:29:11.398Z,13.39
2022-10-22T23:31:41.842Z,13.37
2022-10-22T23:34:13.641Z,13.35
2022-10-22T23:36:43.680Z,13.32
2022-10-22T23:39:16.006Z,13.26
2022-10-22T23:41:46.191Z,13.21
2022-10-22T23:44:16.538Z,13.16
2022-10-22T23:46:46.564Z,13.12
2022-10-22T23:49:17.094Z,13.10
2022-10-22T23:51:47.120Z,13.08
2022-10-22T23:54:18.710Z,13.06
2022-10-22T23:56:48.755Z,13.03
2022-10-22T23:59:19.823Z,13.01
